sensor_id;sensor_type;location;lat;lon;timestamp;P1;P2;P0
33948;PMS7003;20229;49.856;19.030;2024-03-08T00:03:24;36;28;17
33948;PMS7003;20229;49.856;19.030;2024-03-08T00:08:38;40;32;18
33948;PMS7003;20229;49.856;19.030;2024-03-08T00:13:52;40;30;18
33948;PMS7003;20229;49.856;19.030;2024-03-08T00:19:06;41;33;20
33948;PMS7003;20229;49.856;19.030;2024-03-08T00:24:20;42;33;21
33948;PMS7003;20229;49.856;19.030;2024-03-08T00:29:38;34;29;19
33948;PMS7003;20229;49.856;19.030;2024-03-08T00:34:55;42;34;21
33948;PMS7003;20229;49.856;19.030;2024-03-08T00:40:10;38;30;18
33948;PMS7003;20229;49.856;19.030;2024-03-08T00:45:24;34;26;16
33948;PMS7003;20229;49.856;19.030;2024-03-08T00:50:40;39;31;18
33948;PMS7003;20229;49.856;19.030;2024-03-08T00:55:55;33;27;18
33948;PMS7003;20229;49.856;19.030;2024-03-08T01:01:09;29;26;17
33948;PMS7003;20229;49.856;19.030;2024-03-08T01:06:23;26;22;12
33948;PMS7003;20229;49.856;19.030;2024-03-08T01:11:38;34;27;17
33948;PMS7003;20229;49.856;19.030;2024-03-08T01:16:52;34;28;16
33948;PMS7003;20229;49.856;19.030;2024-03-08T01:22:08;39;32;19
33948;PMS7003;20229;49.856;19.030;2024-03-08T01:27:25;30;26;16
33948;PMS7003;20229;49.856;19.030;2024-03-08T01:32:39;34;25;16
33948;PMS7003;20229;49.856;19.030;2024-03-08T01:37:53;33;27;16
33948;PMS7003;20229;49.856;19.030;2024-03-08T01:49:01;32;26;17
33948;PMS7003;20229;49.856;19.030;2024-03-08T01:54:18;31;26;16
33948;PMS7003;20229;49.856;19.030;2024-03-08T01:59:33;32;25;16
33948;PMS7003;20229;49.856;19.030;2024-03-08T02:04:47;33;25;15
33948;PMS7003;20229;49.856;19.030;2024-03-08T02:10:02;36;26;17
33948;PMS7003;20229;49.856;19.030;2024-03-08T02:15:16;32;27;18
33948;PMS7003;20229;49.856;19.030;2024-03-08T02:20:30;32;27;17
33948;PMS7003;20229;49.856;19.030;2024-03-08T02:25:43;34;27;17
33948;PMS7003;20229;49.856;19.030;2024-03-08T02:30:57;33;26;15
33948;PMS7003;20229;49.856;19.030;2024-03-08T02:36:11;35;28;17
33948;PMS7003;20229;49.856;19.030;2024-03-08T02:41:26;33;28;17
33948;PMS7003;20229;49.856;19.030;2024-03-08T02:46:40;31;24;14
33948;PMS7003;20229;49.856;19.030;2024-03-08T02:51:54;34;27;17
33948;PMS7003;20229;49.856;19.030;2024-03-08T02:57:12;28;23;13
33948;PMS7003;20229;49.856;19.030;2024-03-08T03:02:28;32;27;16
33948;PMS7003;20229;49.856;19.030;2024-03-08T03:07:42;35;29;18
33948;PMS7003;20229;49.856;19.030;2024-03-08T03:12:55;36;28;18
33948;PMS7003;20229;49.856;19.030;2024-03-08T03:18:09;36;28;17
33948;PMS7003;20229;49.856;19.030;2024-03-08T03:23:25;29;25;16
33948;PMS7003;20229;49.856;19.030;2024-03-08T03:28:39;33;26;17
33948;PMS7003;20229;49.856;19.030;2024-03-08T03:33:53;32;27;15
33948;PMS7003;20229;49.856;19.030;2024-03-08T03:39:08;33;25;15
33948;PMS7003;20229;49.856;19.030;2024-03-08T03:44:29;34;29;18
33948;PMS7003;20229;49.856;19.030;2024-03-08T03:49:43;35;26;16
33948;PMS7003;20229;49.856;19.030;2024-03-08T03:54:58;33;26;16
33948;PMS7003;20229;49.856;19.030;2024-03-08T04:00:13;31;25;16
33948;PMS7003;20229;49.856;19.030;2024-03-08T04:05:27;33;26;17
33948;PMS7003;20229;49.856;19.030;2024-03-08T04:10:42;31;26;16
33948;PMS7003;20229;49.856;19.030;2024-03-08T04:15:57;33;25;15
33948;PMS7003;20229;49.856;19.030;2024-03-08T04:21:11;39;29;17
33948;PMS7003;20229;49.856;19.030;2024-03-08T04:26:24;33;28;17
33948;PMS7003;20229;49.856;19.030;2024-03-08T04:31:39;34;28;17
33948;PMS7003;20229;49.856;19.030;2024-03-08T04:36:53;33;28;17
33948;PMS7003;20229;49.856;19.030;2024-03-08T04:42:08;30;26;16
33948;PMS7003;20229;49.856;19.030;2024-03-08T04:47:24;33;27;16
33948;PMS7003;20229;49.856;19.030;2024-03-08T04:52:38;33;25;15
33948;PMS7003;20229;49.856;19.030;2024-03-08T04:57:52;29;26;14
33948;PMS7003;20229;49.856;19.030;2024-03-08T05:03:07;30;25;16
33948;PMS7003;20229;49.856;19.030;2024-03-08T05:08:21;28;25;16
33948;PMS7003;20229;49.856;19.030;2024-03-08T05:13:35;31;26;16
33948;PMS7003;20229;49.856;19.030;2024-03-08T05:18:50;33;27;16
33948;PMS7003;20229;49.856;19.030;2024-03-08T05:24:05;36;28;16
33948;PMS7003;20229;49.856;19.030;2024-03-08T05:29:19;35;28;17
33948;PMS7003;20229;49.856;19.030;2024-03-08T05:34:33;32;27;17
33948;PMS7003;20229;49.856;19.030;2024-03-08T05:39:47;36;27;17
33948;PMS7003;20229;49.856;19.030;2024-03-08T05:45:02;34;28;17
33948;PMS7003;20229;49.856;19.030;2024-03-08T05:50:24;32;25;18
33948;PMS7003;20229;49.856;19.030;2024-03-08T05:55:37;34;30;18
33948;PMS7003;20229;49.856;19.030;2024-03-08T06:00:53;34;28;17
33948;PMS7003;20229;49.856;19.030;2024-03-08T06:06:08;38;30;19
33948;PMS7003;20229;49.856;19.030;2024-03-08T06:11:22;33;26;15
33948;PMS7003;20229;49.856;19.030;2024-03-08T06:16:36;25;23;15
33948;PMS7003;20229;49.856;19.030;2024-03-08T06:21:51;31;25;16
33948;PMS7003;20229;49.856;19.030;2024-03-08T06:27:05;37;27;16
33948;PMS7003;20229;49.856;19.030;2024-03-08T06:32:19;34;27;17
33948;PMS7003;20229;49.856;19.030;2024-03-08T06:37:33;27;20;16
33948;PMS7003;20229;49.856;19.030;2024-03-08T06:42:48;33;27;16
33948;PMS7003;20229;49.856;19.030;2024-03-08T06:48:06;37;29;18
33948;PMS7003;20229;49.856;19.030;2024-03-08T06:53:22;27;22;10
33948;PMS7003;20229;49.856;19.030;2024-03-08T06:58:38;27;24;16
33948;PMS7003;20229;49.856;19.030;2024-03-08T07:03:53;28;25;13
33948;PMS7003;20229;49.856;19.030;2024-03-08T07:09:12;31;26;16
33948;PMS7003;20229;49.856;19.030;2024-03-08T07:14:26;31;26;15
33948;PMS7003;20229;49.856;19.030;2024-03-08T07:19:40;30;27;15
33948;PMS7003;20229;49.856;19.030;2024-03-08T07:24:53;30;24;15
33948;PMS7003;20229;49.856;19.030;2024-03-08T07:30:19;33;27;17
33948;PMS7003;20229;49.856;19.030;2024-03-08T07:35:49;27;24;15
33948;PMS7003;20229;49.856;19.030;2024-03-08T07:41:03;30;27;17
33948;PMS7003;20229;49.856;19.030;2024-03-08T07:46:17;34;29;17
33948;PMS7003;20229;49.856;19.030;2024-03-08T07:51:31;29;26;17
33948;PMS7003;20229;49.856;19.030;2024-03-08T07:56:47;33;27;17
33948;PMS7003;20229;49.856;19.030;2024-03-08T08:02:02;26;23;12
33948;PMS7003;20229;49.856;19.030;2024-03-08T08:07:17;26;23;13
33948;PMS7003;20229;49.856;19.030;2024-03-08T08:12:31;27;26;14
33948;PMS7003;20229;49.856;19.030;2024-03-08T08:17:47;30;25;15
33948;PMS7003;20229;49.856;19.030;2024-03-08T08:23:01;27;26;16
33948;PMS7003;20229;49.856;19.030;2024-03-08T08:28:16;25;23;15
33948;PMS7003;20229;49.856;19.030;2024-03-08T08:33:32;25;20;14
33948;PMS7003;20229;49.856;19.030;2024-03-08T08:38:50;25;24;17
33948;PMS7003;20229;49.856;19.030;2024-03-08T08:44:04;29;25;14
33948;PMS7003;20229;49.856;19.030;2024-03-08T08:49:23;32;27;16
33948;PMS7003;20229;49.856;19.030;2024-03-08T08:54:39;26;22;15
33948;PMS7003;20229;49.856;19.030;2024-03-08T08:59:52;27;23;15
33948;PMS7003;20229;49.856;19.030;2024-03-08T09:05:07;30;26;17
33948;PMS7003;20229;49.856;19.030;2024-03-08T09:10:22;28;23;14
33948;PMS7003;20229;49.856;19.030;2024-03-08T09:15:38;35;27;17
33948;PMS7003;20229;49.856;19.030;2024-03-08T09:20:54;35;29;18
33948;PMS7003;20229;49.856;19.030;2024-03-08T09:26:09;34;28;18
33948;PMS7003;20229;49.856;19.030;2024-03-08T09:31:27;29;23;18
33948;PMS7003;20229;49.856;19.030;2024-03-08T09:36:40;42;31;18
33948;PMS7003;20229;49.856;19.030;2024-03-08T09:41:55;34;29;17
33948;PMS7003;20229;49.856;19.030;2024-03-08T09:51:05;36;29;18
33948;PMS7003;20229;49.856;19.030;2024-03-08T09:56:33;31;27;16
33948;PMS7003;20229;49.856;19.030;2024-03-08T10:01:49;36;29;18
33948;PMS7003;20229;49.856;19.030;2024-03-08T10:07:05;35;30;18
33948;PMS7003;20229;49.856;19.030;2024-03-08T10:12:20;37;29;18
33948;PMS7003;20229;49.856;19.030;2024-03-08T10:17:35;37;28;17
33948;PMS7003;20229;49.856;19.030;2024-03-08T10:22:49;32;28;19
33948;PMS7003;20229;49.856;19.030;2024-03-08T10:28:04;42;34;20
33948;PMS7003;20229;49.856;19.030;2024-03-08T10:33:19;33;30;18
33948;PMS7003;20229;49.856;19.030;2024-03-08T10:38:35;33;27;18
33948;PMS7003;20229;49.856;19.030;2024-03-08T10:44:08;41;32;20
33948;PMS7003;20229;49.856;19.030;2024-03-08T10:50:11;40;32;20
33948;PMS7003;20229;49.856;19.030;2024-03-08T10:54:58;41;35;21
33948;PMS7003;20229;49.856;19.030;2024-03-08T11:00:15;41;33;19
33948;PMS7003;20229;49.856;19.030;2024-03-08T11:10:54;34;29;21
33948;PMS7003;20229;49.856;19.030;2024-03-08T11:16:51;44;33;21
33948;PMS7003;20229;49.856;19.030;2024-03-08T11:21:38;38;31;20
33948;PMS7003;20229;49.856;19.030;2024-03-08T11:32:17;49;36;22
33948;PMS7003;20229;49.856;19.030;2024-03-08T11:37:32;42;34;21
33948;PMS7003;20229;49.856;19.030;2024-03-08T11:42:49;38;33;20
33948;PMS7003;20229;49.856;19.030;2024-03-08T11:48:05;35;29;21
33948;PMS7003;20229;49.856;19.030;2024-03-08T11:53:19;41;32;18
33948;PMS7003;20229;49.856;19.030;2024-03-08T11:58:33;41;33;21
33948;PMS7003;20229;49.856;19.030;2024-03-08T12:03:55;46;34;21
33948;PMS7003;20229;49.856;19.030;2024-03-08T12:09:13;40;34;20
33948;PMS7003;20229;49.856;19.030;2024-03-08T12:14:28;38;34;21
33948;PMS7003;20229;49.856;19.030;2024-03-08T12:19:45;45;35;21
33948;PMS7003;20229;49.856;19.030;2024-03-08T12:25:05;39;32;19
33948;PMS7003;20229;49.856;19.030;2024-03-08T12:30:24;35;29;18
33948;PMS7003;20229;49.856;19.030;2024-03-08T12:35:41;39;33;19
33948;PMS7003;20229;49.856;19.030;2024-03-08T12:41:38;36;31;20
33948;PMS7003;20229;49.856;19.030;2024-03-08T12:46:54;37;30;18
33948;PMS7003;20229;49.856;19.030;2024-03-08T12:52:08;39;33;21
33948;PMS7003;20229;49.856;19.030;2024-03-08T12:57:24;39;32;19
33948;PMS7003;20229;49.856;19.030;2024-03-08T13:02:41;44;34;22
33948;PMS7003;20229;49.856;19.030;2024-03-08T13:07:55;40;32;21
33948;PMS7003;20229;49.856;19.030;2024-03-08T13:13:10;41;33;20
33948;PMS7003;20229;49.856;19.030;2024-03-08T13:18:26;40;32;21
33948;PMS7003;20229;49.856;19.030;2024-03-08T13:23:41;36;30;15
33948;PMS7003;20229;49.856;19.030;2024-03-08T13:29:03;40;34;20
33948;PMS7003;20229;49.856;19.030;2024-03-08T13:34:19;39;30;18
33948;PMS7003;20229;49.856;19.030;2024-03-08T13:39:44;40;32;20
33948;PMS7003;20229;49.856;19.030;2024-03-08T13:44:58;35;29;17
33948;PMS7003;20229;49.856;19.030;2024-03-08T13:50:12;37;29;17
33948;PMS7003;20229;49.856;19.030;2024-03-08T13:55:26;40;33;21
33948;PMS7003;20229;49.856;19.030;2024-03-08T14:00:40;35;29;18
33948;PMS7003;20229;49.856;19.030;2024-03-08T14:05:59;37;31;19
33948;PMS7003;20229;49.856;19.030;2024-03-08T14:11:14;32;26;19
33948;PMS7003;20229;49.856;19.030;2024-03-08T14:16:28;38;31;20
33948;PMS7003;20229;49.856;19.030;2024-03-08T14:21:45;45;36;21
33948;PMS7003;20229;49.856;19.030;2024-03-08T14:27:01;36;29;17
33948;PMS7003;20229;49.856;19.030;2024-03-08T14:32:17;39;33;19
33948;PMS7003;20229;49.856;19.030;2024-03-08T14:37:36;39;28;19
33948;PMS7003;20229;49.856;19.030;2024-03-08T14:42:50;35;28;14
33948;PMS7003;20229;49.856;19.030;2024-03-08T14:48:07;43;36;23
33948;PMS7003;20229;49.856;19.030;2024-03-08T14:53:20;40;33;19
33948;PMS7003;20229;49.856;19.030;2024-03-08T14:58:35;44;33;20
33948;PMS7003;20229;49.856;19.030;2024-03-08T15:03:50;38;31;20
33948;PMS7003;20229;49.856;19.030;2024-03-08T15:09:05;41;33;19
33948;PMS7003;20229;49.856;19.030;2024-03-08T15:14:30;26;21;9
33948;PMS7003;20229;49.856;19.030;2024-03-08T15:19:47;44;34;20
33948;PMS7003;20229;49.856;19.030;2024-03-08T15:25:07;42;35;22
33948;PMS7003;20229;49.856;19.030;2024-03-08T15:30:27;39;31;19
33948;PMS7003;20229;49.856;19.030;2024-03-08T15:35:47;39;30;18
33948;PMS7003;20229;49.856;19.030;2024-03-08T15:41:08;38;30;19
33948;PMS7003;20229;49.856;19.030;2024-03-08T15:46:25;48;39;23
33948;PMS7003;20229;49.856;19.030;2024-03-08T15:51:39;41;33;21
33948;PMS7003;20229;49.856;19.030;2024-03-08T15:56:54;48;36;24
33948;PMS7003;20229;49.856;19.030;2024-03-08T16:02:08;48;37;22
33948;PMS7003;20229;49.856;19.030;2024-03-08T16:07:22;41;35;21
33948;PMS7003;20229;49.856;19.030;2024-03-08T16:12:35;38;32;20
33948;PMS7003;20229;49.856;19.030;2024-03-08T16:17:52;42;33;20
33948;PMS7003;20229;49.856;19.030;2024-03-08T16:23:06;40;32;19
33948;PMS7003;20229;49.856;19.030;2024-03-08T16:28:20;42;32;20
33948;PMS7003;20229;49.856;19.030;2024-03-08T16:33:45;41;32;20
33948;PMS7003;20229;49.856;19.030;2024-03-08T16:39:06;38;31;20
33948;PMS7003;20229;49.856;19.030;2024-03-08T16:44:22;40;33;21
33948;PMS7003;20229;49.856;19.030;2024-03-08T16:49:41;43;34;20
33948;PMS7003;20229;49.856;19.030;2024-03-08T16:54:56;44;36;23
33948;PMS7003;20229;49.856;19.030;2024-03-08T17:00:13;42;34;20
33948;PMS7003;20229;49.856;19.030;2024-03-08T17:05:33;43;33;20
33948;PMS7003;20229;49.856;19.030;2024-03-08T17:10:48;41;33;21
33948;PMS7003;20229;49.856;19.030;2024-03-08T17:16:03;45;36;22
33948;PMS7003;20229;49.856;19.030;2024-03-08T17:21:20;43;34;21
33948;PMS7003;20229;49.856;19.030;2024-03-08T17:26:34;51;39;24
33948;PMS7003;20229;49.856;19.030;2024-03-08T17:31:48;49;38;23
33948;PMS7003;20229;49.856;19.030;2024-03-08T17:37:03;42;34;22
33948;PMS7003;20229;49.856;19.030;2024-03-08T17:42:20;47;37;23
33948;PMS7003;20229;49.856;19.030;2024-03-08T17:47:38;51;39;24
33948;PMS7003;20229;49.856;19.030;2024-03-08T17:52:52;48;38;24
33948;PMS7003;20229;49.856;19.030;2024-03-08T17:58:07;53;41;25
33948;PMS7003;20229;49.856;19.030;2024-03-08T18:03:23;50;36;25
33948;PMS7003;20229;49.856;19.030;2024-03-08T18:08:41;51;40;26
33948;PMS7003;20229;49.856;19.030;2024-03-08T18:13:58;46;39;24
33948;PMS7003;20229;49.856;19.030;2024-03-08T18:19:12;55;43;25
33948;PMS7003;20229;49.856;19.030;2024-03-08T18:24:32;53;41;26
33948;PMS7003;20229;49.856;19.030;2024-03-08T18:29:46;52;41;25
33948;PMS7003;20229;49.856;19.030;2024-03-08T18:35:00;57;43;28
33948;PMS7003;20229;49.856;19.030;2024-03-08T18:40:16;57;44;27
33948;PMS7003;20229;49.856;19.030;2024-03-08T18:45:37;54;42;26
33948;PMS7003;20229;49.856;19.030;2024-03-08T18:50:51;57;45;27
33948;PMS7003;20229;49.856;19.030;2024-03-08T18:56:07;54;41;25
33948;PMS7003;20229;49.856;19.030;2024-03-08T19:01:22;68;56;33
33948;PMS7003;20229;49.856;19.030;2024-03-08T19:06:44;61;50;31
33948;PMS7003;20229;49.856;19.030;2024-03-08T19:12:03;63;47;28
33948;PMS7003;20229;49.856;19.030;2024-03-08T19:17:22;57;44;29
33948;PMS7003;20229;49.856;19.030;2024-03-08T19:22:39;61;48;30
33948;PMS7003;20229;49.856;19.030;2024-03-08T19:27:58;64;51;31
33948;PMS7003;20229;49.856;19.030;2024-03-08T19:33:13;64;50;30
33948;PMS7003;20229;49.856;19.030;2024-03-08T19:38:29;62;51;31
33948;PMS7003;20229;49.856;19.030;2024-03-08T19:43:45;68;57;33
33948;PMS7003;20229;49.856;19.030;2024-03-08T19:49:00;68;58;34
33948;PMS7003;20229;49.856;19.030;2024-03-08T19:54:17;70;59;35
33948;PMS7003;20229;49.856;19.030;2024-03-08T19:59:31;67;55;32
33948;PMS7003;20229;49.856;19.030;2024-03-08T20:04:56;63;48;30
33948;PMS7003;20229;49.856;19.030;2024-03-08T20:10:11;65;51;31
33948;PMS7003;20229;49.856;19.030;2024-03-08T20:15:28;62;49;30
33948;PMS7003;20229;49.856;19.030;2024-03-08T20:20:44;66;53;32
33948;PMS7003;20229;49.856;19.030;2024-03-08T20:26:02;68;56;33
33948;PMS7003;20229;49.856;19.030;2024-03-08T20:31:23;65;54;32
33948;PMS7003;20229;49.856;19.030;2024-03-08T20:36:39;66;55;34
33948;PMS7003;20229;49.856;19.030;2024-03-08T20:41:55;67;55;34
33948;PMS7003;20229;49.856;19.030;2024-03-08T20:47:08;68;52;32
33948;PMS7003;20229;49.856;19.030;2024-03-08T20:52:25;65;54;33
33948;PMS7003;20229;49.856;19.030;2024-03-08T20:57:39;63;51;31
33948;PMS7003;20229;49.856;19.030;2024-03-08T21:03:02;64;53;33
33948;PMS7003;20229;49.856;19.030;2024-03-08T21:08:20;68;59;34
33948;PMS7003;20229;49.856;19.030;2024-03-08T21:13:41;70;58;35
33948;PMS7003;20229;49.856;19.030;2024-03-08T21:18:56;61;48;28
33948;PMS7003;20229;49.856;19.030;2024-03-08T21:24:10;71;61;38
33948;PMS7003;20229;49.856;19.030;2024-03-08T21:29:26;70;57;37
33948;PMS7003;20229;49.856;19.030;2024-03-08T21:34:42;73;62;37
33948;PMS7003;20229;49.856;19.030;2024-03-08T21:39:56;69;60;35
33948;PMS7003;20229;49.856;19.030;2024-03-08T21:45:10;69;60;34
33948;PMS7003;20229;49.856;19.030;2024-03-08T21:50:27;68;58;34
33948;PMS7003;20229;49.856;19.030;2024-03-08T21:55:47;67;58;34
33948;PMS7003;20229;49.856;19.030;2024-03-08T22:01:01;73;66;37
33948;PMS7003;20229;49.856;19.030;2024-03-08T22:06:15;67;60;35
33948;PMS7003;20229;49.856;19.030;2024-03-08T22:11:30;70;59;35
33948;PMS7003;20229;49.856;19.030;2024-03-08T22:16:45;77;67;40
33948;PMS7003;20229;49.856;19.030;2024-03-08T22:21:59;82;71;42
33948;PMS7003;20229;49.856;19.030;2024-03-08T22:27:12;104;90;49
33948;PMS7003;20229;49.856;19.030;2024-03-08T22:32:28;105;91;53
33948;PMS7003;20229;49.856;19.030;2024-03-08T22:37:45;93;81;46
33948;PMS7003;20229;49.856;19.030;2024-03-08T22:43:00;86;73;42
33948;PMS7003;20229;49.856;19.030;2024-03-08T22:48:14;80;70;41
33948;PMS7003;20229;49.856;19.030;2024-03-08T22:53:28;86;75;43
33948;PMS7003;20229;49.856;19.030;2024-03-08T22:58:43;86;73;44
33948;PMS7003;20229;49.856;19.030;2024-03-08T23:03:57;84;76;44
33948;PMS7003;20229;49.856;19.030;2024-03-08T23:09:12;84;74;45
33948;PMS7003;20229;49.856;19.030;2024-03-08T23:14:26;89;77;44
33948;PMS7003;20229;49.856;19.030;2024-03-08T23:19:40;84;72;43
33948;PMS7003;20229;49.856;19.030;2024-03-08T23:24:57;82;69;41
33948;PMS7003;20229;49.856;19.030;2024-03-08T23:30:12;71;63;37
33948;PMS7003;20229;49.856;19.030;2024-03-08T23:35:26;65;51;31
33948;PMS7003;20229;49.856;19.030;2024-03-08T23:40:41;57;46;28
33948;PMS7003;20229;49.856;19.030;2024-03-08T23:45:57;63;49;29
33948;PMS7003;20229;49.856;19.030;2024-03-08T23:51:12;67;55;34
33948;PMS7003;20229;49.856;19.030;2024-03-08T23:56:26;74;64;37
